KINS/INS METAR and TAF weather

Enter ICAO airport designator
Station Type Date Time Source
KINS METAR 2019/05/25 14:58 UTC NOAA

KINS 251458Z AUTO 00000KT 10SM CLR 16/04 A2984 RMK AO2 SLP072 T01570044 51005 $


Station Type Date Time Source
KINS Decoded METAR 2019/05/25 14:58 UTC NOAA

Indian Springs, Indian Springs Auxiliary AFLD Nellis AFB, NV, United States (KINS) 36-35N 115-40W
May 25, 2019 - 10:58 AM EDT / 2019.05.25 1458 UTC
Wind: Calm:0
Visibility: 10 mile(s):0
Sky conditions: clear
Temperature: 60.3 F (15.7 C)
Dew Point: 39.9 F (4.4 C)
Relative Humidity: 46%
Pressure (altimeter): 29.84 in. Hg (1010 hPa)
Pressure tendency: 0.01 inches (0.5 hPa) higher than three hours ago
ob: KINS 251458Z AUTO 00000KT 10SM CLR 16/04 A2984 RMK AO2 SLP072 T01570044 51005
cycle: 15

Station Type Date Time Source
KINS TAF 2019/05/24 22:18 UTC NOAA

TAF TAF
AMD KINS 242217Z 2422/2603 20010G15KT 9999 BKN090 QNH2984INS SHRA OMTNS
BECMG 2510/2511 VRB06KT 9999 FEW090 FEW250 QNH2980INS
BECMG 2517/2518 13015G25KT 9999 BKN120 BKN230 510009 QNH2978INS SHRA OMTNS
TEMPO 2519/2601 16020G30KT 520009 TX21/2422Z TN11/2512Z LAST NO
AMDS AFT 2505 NEXT 2805

Example: see airport list